sensor_id;sensor_type;location;lat;lon;timestamp;temperature;humidity
7167;DHT22;3625;51.762;14.320;2023-12-29T00:01:17;6.20;99.90
7167;DHT22;3625;51.762;14.320;2023-12-29T00:03:46;6.20;99.90
7167;DHT22;3625;51.762;14.320;2023-12-29T00:06:15;6.30;99.90
7167;DHT22;3625;51.762;14.320;2023-12-29T00:08:44;6.40;99.90
7167;DHT22;3625;51.762;14.320;2023-12-29T00:11:19;6.40;99.90
7167;DHT22;3625;51.762;14.320;2023-12-29T00:13:48;6.40;99.90
7167;DHT22;3625;51.762;14.320;2023-12-29T00:16:17;6.40;99.90
7167;DHT22;3625;51.762;14.320;2023-12-29T00:18:46;6.50;99.90
7167;DHT22;3625;51.762;14.320;2023-12-29T00:21:15;6.40;99.90
7167;DHT22;3625;51.762;14.320;2023-12-29T00:23:46;6.40;99.90
7167;DHT22;3625;51.762;14.320;2023-12-29T00:26:18;6.40;99.90
7167;DHT22;3625;51.762;14.320;2023-12-29T00:28:54;6.40;99.90
7167;DHT22;3625;51.762;14.320;2023-12-29T00:31:22;6.40;99.90
7167;DHT22;3625;51.762;14.320;2023-12-29T00:33:52;6.30;99.90
7167;DHT22;3625;51.762;14.320;2023-12-29T00:36:21;6.30;99.90
7167;DHT22;3625;51.762;14.320;2023-12-29T00:38:50;6.30;99.90
7167;DHT22;3625;51.762;14.320;2023-12-29T00:41:20;6.40;99.90
7167;DHT22;3625;51.762;14.320;2023-12-29T00:43:49;6.40;99.90
7167;DHT22;3625;51.762;14.320;2023-12-29T00:46:18;6.40;99.90
7167;DHT22;3625;51.762;14.320;2023-12-29T00:48:47;6.30;99.90
7167;DHT22;3625;51.762;14.320;2023-12-29T00:51:15;4.50;99.90
7167;DHT22;3625;51.762;14.320;2023-12-29T00:53:44;6.20;99.90
7167;DHT22;3625;51.762;14.320;2023-12-29T00:56:13;6.20;99.90
7167;DHT22;3625;51.762;14.320;2023-12-29T00:58:43;6.20;1.00
7167;DHT22;3625;51.762;14.320;2023-12-29T01:01:12;6.10;1.00
7167;DHT22;3625;51.762;14.320;2023-12-29T01:03:41;6.10;1.00
7167;DHT22;3625;51.762;14.320;2023-12-29T01:06:10;6.10;1.00
7167;DHT22;3625;51.762;14.320;2023-12-29T01:08:39;9.00;19.20
7167;DHT22;3625;51.762;14.320;2023-12-29T01:11:07;6.10;99.90
7167;DHT22;3625;51.762;14.320;2023-12-29T01:13:37;6.10;61.90
7167;DHT22;3625;51.762;14.320;2023-12-29T01:16:07;6.10;22.70
7167;DHT22;3625;51.762;14.320;2023-12-29T01:18:36;6.00;36.60
7167;DHT22;3625;51.762;14.320;2023-12-29T01:21:04;6.00;99.90
7167;DHT22;3625;51.762;14.320;2023-12-29T01:23:33;5.90;99.90
7167;DHT22;3625;51.762;14.320;2023-12-29T01:26:02;5.90;43.20
7167;DHT22;3625;51.762;14.320;2023-12-29T01:28:31;5.90;92.40
7167;DHT22;3625;51.762;14.320;2023-12-29T01:31:00;5.90;19.50
7167;DHT22;3625;51.762;14.320;2023-12-29T01:33:30;5.90;33.90
7167;DHT22;3625;51.762;14.320;2023-12-29T01:35:59;5.90;1.00
7167;DHT22;3625;51.762;14.320;2023-12-29T01:38:43;5.90;1.00
7167;DHT22;3625;51.762;14.320;2023-12-29T01:41:19;5.90;1.00
7167;DHT22;3625;51.762;14.320;2023-12-29T01:44:22;5.90;1.00
7167;DHT22;3625;51.762;14.320;2023-12-29T01:47:10;5.80;1.00
7167;DHT22;3625;51.762;14.320;2023-12-29T01:49:45;5.80;1.00
7167;DHT22;3625;51.762;14.320;2023-12-29T01:52:18;5.80;1.00
7167;DHT22;3625;51.762;14.320;2023-12-29T01:54:49;5.80;1.00
7167;DHT22;3625;51.762;14.320;2023-12-29T01:57:23;5.80;1.00
7167;DHT22;3625;51.762;14.320;2023-12-29T01:59:52;5.90;1.00
7167;DHT22;3625;51.762;14.320;2023-12-29T02:02:21;5.90;1.00
7167;DHT22;3625;51.762;14.320;2023-12-29T02:04:51;5.90;1.00
7167;DHT22;3625;51.762;14.320;2023-12-29T02:07:21;5.90;1.00
7167;DHT22;3625;51.762;14.320;2023-12-29T02:09:51;6.00;1.00
7167;DHT22;3625;51.762;14.320;2023-12-29T02:12:20;6.10;1.00
7167;DHT22;3625;51.762;14.320;2023-12-29T02:14:49;6.10;1.00
7167;DHT22;3625;51.762;14.320;2023-12-29T02:17:22;6.10;1.00
7167;DHT22;3625;51.762;14.320;2023-12-29T02:19:56;6.10;1.00
7167;DHT22;3625;51.762;14.320;2023-12-29T02:22:25;6.10;1.00
7167;DHT22;3625;51.762;14.320;2023-12-29T02:24:55;6.10;1.00
7167;DHT22;3625;51.762;14.320;2023-12-29T02:27:34;6.00;1.00
7167;DHT22;3625;51.762;14.320;2023-12-29T02:30:11;6.00;1.00
7167;DHT22;3625;51.762;14.320;2023-12-29T02:32:47;6.00;99.90
7167;DHT22;3625;51.762;14.320;2023-12-29T02:35:24;6.00;99.90
7167;DHT22;3625;51.762;14.320;2023-12-29T02:37:55;6.00;99.90
7167;DHT22;3625;51.762;14.320;2023-12-29T02:40:27;6.00;99.90
7167;DHT22;3625;51.762;14.320;2023-12-29T02:42:56;6.00;99.90
7167;DHT22;3625;51.762;14.320;2023-12-29T02:45:26;6.00;99.90
7167;DHT22;3625;51.762;14.320;2023-12-29T02:47:55;6.00;99.90
7167;DHT22;3625;51.762;14.320;2023-12-29T02:50:25;6.10;99.90
7167;DHT22;3625;51.762;14.320;2023-12-29T02:52:54;6.10;99.90
7167;DHT22;3625;51.762;14.320;2023-12-29T02:55:22;6.10;99.90
7167;DHT22;3625;51.762;14.320;2023-12-29T02:57:52;6.10;99.90
7167;DHT22;3625;51.762;14.320;2023-12-29T03:00:22;6.10;99.90
7167;DHT22;3625;51.762;14.320;2023-12-29T03:02:50;6.10;99.90
7167;DHT22;3625;51.762;14.320;2023-12-29T03:05:19;6.10;1.00
7167;DHT22;3625;51.762;14.320;2023-12-29T03:07:48;6.10;1.00
7167;DHT22;3625;51.762;14.320;2023-12-29T03:10:20;6.10;1.00
7167;DHT22;3625;51.762;14.320;2023-12-29T03:12:48;6.00;1.00
7167;DHT22;3625;51.762;14.320;2023-12-29T03:15:18;6.00;1.00
7167;DHT22;3625;51.762;14.320;2023-12-29T03:17:47;6.00;1.00
7167;DHT22;3625;51.762;14.320;2023-12-29T03:20:16;6.00;1.00
7167;DHT22;3625;51.762;14.320;2023-12-29T03:22:45;6.10;1.00
7167;DHT22;3625;51.762;14.320;2023-12-29T03:25:14;6.10;1.00
7167;DHT22;3625;51.762;14.320;2023-12-29T03:27:43;6.10;99.90
7167;DHT22;3625;51.762;14.320;2023-12-29T03:30:12;6.10;1.00
7167;DHT22;3625;51.762;14.320;2023-12-29T03:32:44;6.10;1.00
7167;DHT22;3625;51.762;14.320;2023-12-29T03:35:13;6.10;1.00
7167;DHT22;3625;51.762;14.320;2023-12-29T03:37:43;6.20;1.00
7167;DHT22;3625;51.762;14.320;2023-12-29T03:40:14;6.20;1.00
7167;DHT22;3625;51.762;14.320;2023-12-29T03:42:42;6.20;1.00
7167;DHT22;3625;51.762;14.320;2023-12-29T03:45:12;6.20;1.00
7167;DHT22;3625;51.762;14.320;2023-12-29T03:47:41;6.20;1.00
7167;DHT22;3625;51.762;14.320;2023-12-29T03:50:11;5.20;1.00
7167;DHT22;3625;51.762;14.320;2023-12-29T03:52:40;6.20;1.00
7167;DHT22;3625;51.762;14.320;2023-12-29T03:55:09;6.20;99.90
7167;DHT22;3625;51.762;14.320;2023-12-29T03:57:42;6.20;1.00
7167;DHT22;3625;51.762;14.320;2023-12-29T04:00:12;6.20;1.00
7167;DHT22;3625;51.762;14.320;2023-12-29T04:02:43;6.30;1.00
7167;DHT22;3625;51.762;14.320;2023-12-29T04:05:13;6.30;99.90
7167;DHT22;3625;51.762;14.320;2023-12-29T04:07:42;6.30;99.90
7167;DHT22;3625;51.762;14.320;2023-12-29T04:10:11;5.40;99.90
7167;DHT22;3625;51.762;14.320;2023-12-29T04:12:40;6.40;2.40
7167;DHT22;3625;51.762;14.320;2023-12-29T04:15:09;6.40;9.50
7167;DHT22;3625;51.762;14.320;2023-12-29T04:17:38;6.40;1.00
7167;DHT22;3625;51.762;14.320;2023-12-29T04:20:08;6.40;1.00
7167;DHT22;3625;51.762;14.320;2023-12-29T04:22:38;6.40;99.90
7167;DHT22;3625;51.762;14.320;2023-12-29T04:25:08;6.40;99.90
7167;DHT22;3625;51.762;14.320;2023-12-29T04:27:37;6.30;99.90
7167;DHT22;3625;51.762;14.320;2023-12-29T04:30:06;6.30;1.00
7167;DHT22;3625;51.762;14.320;2023-12-29T04:32:36;6.20;1.00
7167;DHT22;3625;51.762;14.320;2023-12-29T04:35:06;6.20;1.00
7167;DHT22;3625;51.762;14.320;2023-12-29T04:37:38;6.30;1.00
7167;DHT22;3625;51.762;14.320;2023-12-29T04:40:08;6.30;1.00
7167;DHT22;3625;51.762;14.320;2023-12-29T04:42:37;6.30;1.00
7167;DHT22;3625;51.762;14.320;2023-12-29T04:45:06;6.20;99.90
7167;DHT22;3625;51.762;14.320;2023-12-29T04:47:35;6.30;99.90
7167;DHT22;3625;51.762;14.320;2023-12-29T04:50:05;6.30;1.00
7167;DHT22;3625;51.762;14.320;2023-12-29T04:52:35;6.30;1.00
7167;DHT22;3625;51.762;14.320;2023-12-29T04:55:06;6.40;72.20
7167;DHT22;3625;51.762;14.320;2023-12-29T04:57:35;6.40;1.00
7167;DHT22;3625;51.762;14.320;2023-12-29T05:00:05;6.40;1.00
7167;DHT22;3625;51.762;14.320;2023-12-29T05:02:35;6.40;1.00
7167;DHT22;3625;51.762;14.320;2023-12-29T05:05:04;6.50;1.00
7167;DHT22;3625;51.762;14.320;2023-12-29T05:07:33;6.50;99.90
7167;DHT22;3625;51.762;14.320;2023-12-29T05:10:03;6.50;1.00
7167;DHT22;3625;51.762;14.320;2023-12-29T05:12:34;6.50;1.00
7167;DHT22;3625;51.762;14.320;2023-12-29T05:15:04;6.40;1.00
7167;DHT22;3625;51.762;14.320;2023-12-29T05:17:34;6.40;1.00
7167;DHT22;3625;51.762;14.320;2023-12-29T05:20:07;6.30;1.00
7167;DHT22;3625;51.762;14.320;2023-12-29T05:22:37;6.40;1.00
7167;DHT22;3625;51.762;14.320;2023-12-29T05:25:07;6.40;1.00
7167;DHT22;3625;51.762;14.320;2023-12-29T05:27:37;6.50;1.00
7167;DHT22;3625;51.762;14.320;2023-12-29T05:30:06;6.50;1.00
7167;DHT22;3625;51.762;14.320;2023-12-29T05:32:35;6.50;1.00
7167;DHT22;3625;51.762;14.320;2023-12-29T05:35:05;6.50;99.90
7167;DHT22;3625;51.762;14.320;2023-12-29T05:37:34;6.50;99.90
7167;DHT22;3625;51.762;14.320;2023-12-29T05:40:03;6.50;99.90
7167;DHT22;3625;51.762;14.320;2023-12-29T05:42:34;6.60;99.90
7167;DHT22;3625;51.762;14.320;2023-12-29T05:45:04;6.70;55.10
7167;DHT22;3625;51.762;14.320;2023-12-29T05:47:33;6.60;1.00
7167;DHT22;3625;51.762;14.320;2023-12-29T05:50:02;6.60;1.00
7167;DHT22;3625;51.762;14.320;2023-12-29T05:52:32;6.70;1.00
7167;DHT22;3625;51.762;14.320;2023-12-29T05:55:01;6.70;1.00
7167;DHT22;3625;51.762;14.320;2023-12-29T05:57:30;6.60;1.00
7167;DHT22;3625;51.762;14.320;2023-12-29T06:00:00;6.60;1.00
7167;DHT22;3625;51.762;14.320;2023-12-29T06:02:37;6.80;1.00
7167;DHT22;3625;51.762;14.320;2023-12-29T06:05:07;6.60;1.00
7167;DHT22;3625;51.762;14.320;2023-12-29T06:07:37;6.60;99.90
7167;DHT22;3625;51.762;14.320;2023-12-29T06:10:06;6.60;99.90
7167;DHT22;3625;51.762;14.320;2023-12-29T06:12:36;6.60;1.00
7167;DHT22;3625;51.762;14.320;2023-12-29T06:15:08;6.60;1.00
7167;DHT22;3625;51.762;14.320;2023-12-29T06:17:39;6.60;99.90
7167;DHT22;3625;51.762;14.320;2023-12-29T06:20:10;6.70;99.90
7167;DHT22;3625;51.762;14.320;2023-12-29T06:22:39;6.70;1.00
7167;DHT22;3625;51.762;14.320;2023-12-29T06:25:09;6.80;1.00
7167;DHT22;3625;51.762;14.320;2023-12-29T06:27:39;6.80;1.00
7167;DHT22;3625;51.762;14.320;2023-12-29T06:30:10;6.80;99.90
7167;DHT22;3625;51.762;14.320;2023-12-29T06:32:39;6.90;99.90
7167;DHT22;3625;51.762;14.320;2023-12-29T06:35:09;6.90;1.00
7167;DHT22;3625;51.762;14.320;2023-12-29T06:37:38;6.90;1.00
7167;DHT22;3625;51.762;14.320;2023-12-29T06:40:08;6.80;1.00
7167;DHT22;3625;51.762;14.320;2023-12-29T06:42:38;6.80;1.00
7167;DHT22;3625;51.762;14.320;2023-12-29T06:45:09;6.90;1.00
7167;DHT22;3625;51.762;14.320;2023-12-29T06:47:37;7.00;1.00
7167;DHT22;3625;51.762;14.320;2023-12-29T06:50:07;7.00;1.00
7167;DHT22;3625;51.762;14.320;2023-12-29T06:52:40;7.10;1.00
7167;DHT22;3625;51.762;14.320;2023-12-29T06:55:09;7.10;1.00
7167;DHT22;3625;51.762;14.320;2023-12-29T06:57:38;7.20;1.00
7167;DHT22;3625;51.762;14.320;2023-12-29T07:00:09;7.20;1.00
7167;DHT22;3625;51.762;14.320;2023-12-29T07:02:39;7.20;1.00
7167;DHT22;3625;51.762;14.320;2023-12-29T07:05:08;7.10;34.60
7167;DHT22;3625;51.762;14.320;2023-12-29T07:07:37;7.10;1.00
7167;DHT22;3625;51.762;14.320;2023-12-29T07:10:06;7.10;1.00
7167;DHT22;3625;51.762;14.320;2023-12-29T07:12:35;7.00;1.00
7167;DHT22;3625;51.762;14.320;2023-12-29T07:15:05;7.00;22.00
7167;DHT22;3625;51.762;14.320;2023-12-29T07:17:36;7.00;1.00
7167;DHT22;3625;51.762;14.320;2023-12-29T07:20:06;7.00;53.50
7167;DHT22;3625;51.762;14.320;2023-12-29T07:22:36;7.10;1.00
7167;DHT22;3625;51.762;14.320;2023-12-29T07:25:05;7.10;1.00
7167;DHT22;3625;51.762;14.320;2023-12-29T07:27:35;7.10;1.00
7167;DHT22;3625;51.762;14.320;2023-12-29T07:30:04;7.10;1.00
7167;DHT22;3625;51.762;14.320;2023-12-29T07:32:34;7.20;1.00
7167;DHT22;3625;51.762;14.320;2023-12-29T07:35:04;7.30;1.00
7167;DHT22;3625;51.762;14.320;2023-12-29T07:37:33;7.40;99.90
7167;DHT22;3625;51.762;14.320;2023-12-29T07:40:03;7.60;1.00
7167;DHT22;3625;51.762;14.320;2023-12-29T07:42:32;7.70;1.00
7167;DHT22;3625;51.762;14.320;2023-12-29T07:45:01;7.80;1.00
7167;DHT22;3625;51.762;14.320;2023-12-29T07:47:31;7.80;1.00
7167;DHT22;3625;51.762;14.320;2023-12-29T07:50:01;7.80;99.90
7167;DHT22;3625;51.762;14.320;2023-12-29T07:52:30;7.80;99.90
7167;DHT22;3625;51.762;14.320;2023-12-29T07:54:59;7.70;99.90
7167;DHT22;3625;51.762;14.320;2023-12-29T07:57:28;7.70;99.90
7167;DHT22;3625;51.762;14.320;2023-12-29T07:59:58;7.70;99.90
7167;DHT22;3625;51.762;14.320;2023-12-29T08:02:30;7.70;18.90
7167;DHT22;3625;51.762;14.320;2023-12-29T08:04:58;7.70;1.00
7167;DHT22;3625;51.762;14.320;2023-12-29T08:07:28;7.70;1.00
7167;DHT22;3625;51.762;14.320;2023-12-29T08:09:57;7.70;99.90
7167;DHT22;3625;51.762;14.320;2023-12-29T08:12:26;7.70;99.90
7167;DHT22;3625;51.762;14.320;2023-12-29T08:14:55;7.70;99.90
7167;DHT22;3625;51.762;14.320;2023-12-29T08:17:24;7.70;99.90
7167;DHT22;3625;51.762;14.320;2023-12-29T08:19:53;7.80;20.50
7167;DHT22;3625;51.762;14.320;2023-12-29T08:22:24;7.80;1.00
7167;DHT22;3625;51.762;14.320;2023-12-29T08:24:54;7.80;1.00
7167;DHT22;3625;51.762;14.320;2023-12-29T08:27:25;7.80;1.00
7167;DHT22;3625;51.762;14.320;2023-12-29T08:29:54;7.90;1.00
7167;DHT22;3625;51.762;14.320;2023-12-29T08:32:23;8.00;99.90
7167;DHT22;3625;51.762;14.320;2023-12-29T08:34:51;8.10;99.90
7167;DHT22;3625;51.762;14.320;2023-12-29T08:37:21;8.20;1.00
7167;DHT22;3625;51.762;14.320;2023-12-29T08:39:49;8.20;1.00
7167;DHT22;3625;51.762;14.320;2023-12-29T08:42:22;8.30;1.00
7167;DHT22;3625;51.762;14.320;2023-12-29T08:44:54;7.40;99.90
7167;DHT22;3625;51.762;14.320;2023-12-29T08:47:25;8.40;99.90
7167;DHT22;3625;51.762;14.320;2023-12-29T08:49:54;8.40;65.60
7167;DHT22;3625;51.762;14.320;2023-12-29T08:52:22;8.40;24.40
7167;DHT22;3625;51.762;14.320;2023-12-29T08:54:51;8.40;1.00
7167;DHT22;3625;51.762;14.320;2023-12-29T08:57:22;8.50;1.00
7167;DHT22;3625;51.762;14.320;2023-12-29T08:59:50;8.50;1.00
7167;DHT22;3625;51.762;14.320;2023-12-29T09:02:19;8.50;1.00
7167;DHT22;3625;51.762;14.320;2023-12-29T09:04:48;8.60;99.90
7167;DHT22;3625;51.762;14.320;2023-12-29T09:07:17;8.70;99.90
7167;DHT22;3625;51.762;14.320;2023-12-29T09:09:46;8.90;1.00
7167;DHT22;3625;51.762;14.320;2023-12-29T09:12:15;8.90;3.50
7167;DHT22;3625;51.762;14.320;2023-12-29T09:14:45;8.90;1.00
7167;DHT22;3625;51.762;14.320;2023-12-29T09:17:13;9.00;1.00
7167;DHT22;3625;51.762;14.320;2023-12-29T09:19:42;9.10;99.90
7167;DHT22;3625;51.762;14.320;2023-12-29T09:22:16;9.20;1.00
7167;DHT22;3625;51.762;14.320;2023-12-29T09:24:48;9.10;1.00
7167;DHT22;3625;51.762;14.320;2023-12-29T09:27:16;9.10;1.00
7167;DHT22;3625;51.762;14.320;2023-12-29T09:29:47;9.00;99.90
7167;DHT22;3625;51.762;14.320;2023-12-29T09:32:15;9.10;1.00
7167;DHT22;3625;51.762;14.320;2023-12-29T09:34:44;9.20;99.90
7167;DHT22;3625;51.762;14.320;2023-12-29T09:37:13;9.30;1.00
7167;DHT22;3625;51.762;14.320;2023-12-29T09:39:42;9.30;1.00
7167;DHT22;3625;51.762;14.320;2023-12-29T09:42:16;9.40;99.90
7167;DHT22;3625;51.762;14.320;2023-12-29T09:44:51;9.40;1.00
7167;DHT22;3625;51.762;14.320;2023-12-29T09:47:22;9.50;99.90
7167;DHT22;3625;51.762;14.320;2023-12-29T09:49:52;9.70;99.90
7167;DHT22;3625;51.762;14.320;2023-12-29T09:52:22;10.00;5.80
7167;DHT22;3625;51.762;14.320;2023-12-29T09:54:52;10.30;1.00
7167;DHT22;3625;51.762;14.320;2023-12-29T09:57:21;10.40;1.00
7167;DHT22;3625;51.762;14.320;2023-12-29T09:59:51;10.50;1.00
7167;DHT22;3625;51.762;14.320;2023-12-29T10:02:21;10.60;1.00
7167;DHT22;3625;51.762;14.320;2023-12-29T10:04:50;10.60;1.00
7167;DHT22;3625;51.762;14.320;2023-12-29T10:07:24;8.80;1.00
7167;DHT22;3625;51.762;14.320;2023-12-29T10:09:56;10.70;1.00
7167;DHT22;3625;51.762;14.320;2023-12-29T10:12:27;10.80;1.00
7167;DHT22;3625;51.762;14.320;2023-12-29T10:15:04;10.70;1.00
7167;DHT22;3625;51.762;14.320;2023-12-29T10:17:46;10.50;1.00
7167;DHT22;3625;51.762;14.320;2023-12-29T10:20:30;10.40;99.90
7167;DHT22;3625;51.762;14.320;2023-12-29T10:23:08;10.50;1.00
7167;DHT22;3625;51.762;14.320;2023-12-29T10:25:40;10.60;99.90
7167;DHT22;3625;51.762;14.320;2023-12-29T10:28:10;10.70;99.90
7167;DHT22;3625;51.762;14.320;2023-12-29T10:30:40;10.70;1.00
7167;DHT22;3625;51.762;14.320;2023-12-29T10:33:09;10.60;1.00
7167;DHT22;3625;51.762;14.320;2023-12-29T10:35:38;10.80;1.00
7167;DHT22;3625;51.762;14.320;2023-12-29T10:38:10;10.90;1.00
7167;DHT22;3625;51.762;14.320;2023-12-29T10:40:40;11.00;1.00
7167;DHT22;3625;51.762;14.320;2023-12-29T10:43:10;11.10;99.90
7167;DHT22;3625;51.762;14.320;2023-12-29T10:45:40;11.20;99.90
7167;DHT22;3625;51.762;14.320;2023-12-29T10:48:10;11.30;99.90
7167;DHT22;3625;51.762;14.320;2023-12-29T10:50:45;11.40;99.90
7167;DHT22;3625;51.762;14.320;2023-12-29T10:53:14;11.40;99.90
7167;DHT22;3625;51.762;14.320;2023-12-29T10:55:44;11.20;99.90
7167;DHT22;3625;51.762;14.320;2023-12-29T10:58:16;11.20;99.90
7167;DHT22;3625;51.762;14.320;2023-12-29T11:00:48;11.20;99.90
7167;DHT22;3625;51.762;14.320;2023-12-29T11:03:17;11.10;99.90
7167;DHT22;3625;51.762;14.320;2023-12-29T11:05:46;11.20;99.90
7167;DHT22;3625;51.762;14.320;2023-12-29T11:08:17;11.20;37.30
7167;DHT22;3625;51.762;14.320;2023-12-29T11:10:48;11.30;1.00
7167;DHT22;3625;51.762;14.320;2023-12-29T11:13:20;11.20;99.90
7167;DHT22;3625;51.762;14.320;2023-12-29T11:15:52;11.20;99.90
7167;DHT22;3625;51.762;14.320;2023-12-29T11:18:23;11.20;99.90
7167;DHT22;3625;51.762;14.320;2023-12-29T11:20:53;11.10;99.90
7167;DHT22;3625;51.762;14.320;2023-12-29T11:23:22;11.10;1.00
7167;DHT22;3625;51.762;14.320;2023-12-29T11:25:51;11.00;93.10
7167;DHT22;3625;51.762;14.320;2023-12-29T11:28:20;10.90;99.90
7167;DHT22;3625;51.762;14.320;2023-12-29T11:30:51;10.80;99.90
7167;DHT22;3625;51.762;14.320;2023-12-29T11:33:23;10.80;99.90
7167;DHT22;3625;51.762;14.320;2023-12-29T11:35:59;10.70;99.90
7167;DHT22;3625;51.762;14.320;2023-12-29T11:38:48;10.70;99.90
7167;DHT22;3625;51.762;14.320;2023-12-29T11:41:27;10.60;99.90
7167;DHT22;3625;51.762;14.320;2023-12-29T11:44:01;10.60;24.10
7167;DHT22;3625;51.762;14.320;2023-12-29T11:46:37;10.70;1.00
7167;DHT22;3625;51.762;14.320;2023-12-29T11:49:10;10.60;1.00
7167;DHT22;3625;51.762;14.320;2023-12-29T11:51:40;10.60;17.70
7167;DHT22;3625;51.762;14.320;2023-12-29T11:54:21;7.70;99.90
7167;DHT22;3625;51.762;14.320;2023-12-29T11:56:57;10.60;99.90
7167;DHT22;3625;51.762;14.320;2023-12-29T11:59:26;10.50;99.90
7167;DHT22;3625;51.762;14.320;2023-12-29T12:01:57;10.50;99.90
7167;DHT22;3625;51.762;14.320;2023-12-29T12:04:38;10.60;99.90
7167;DHT22;3625;51.762;14.320;2023-12-29T12:07:15;10.70;99.90
7167;DHT22;3625;51.762;14.320;2023-12-29T12:09:45;11.00;6.50
7167;DHT22;3625;51.762;14.320;2023-12-29T12:12:38;11.10;99.90
7167;DHT22;3625;51.762;14.320;2023-12-29T12:15:31;11.10;99.90
7167;DHT22;3625;51.762;14.320;2023-12-29T12:18:02;11.20;99.90
7167;DHT22;3625;51.762;14.320;2023-12-29T12:20:35;11.10;99.90
7167;DHT22;3625;51.762;14.320;2023-12-29T12:23:11;11.10;99.90
7167;DHT22;3625;51.762;14.320;2023-12-29T12:25:45;11.20;99.90
7167;DHT22;3625;51.762;14.320;2023-12-29T12:28:15;11.30;1.00
7167;DHT22;3625;51.762;14.320;2023-12-29T12:30:45;11.40;99.90
7167;DHT22;3625;51.762;14.320;2023-12-29T12:33:15;11.50;99.90
7167;DHT22;3625;51.762;14.320;2023-12-29T12:35:44;11.70;1.00
7167;DHT22;3625;51.762;14.320;2023-12-29T12:38:15;11.80;1.00
7167;DHT22;3625;51.762;14.320;2023-12-29T12:40:48;11.50;1.00
7167;DHT22;3625;51.762;14.320;2023-12-29T12:43:17;11.90;1.00
7167;DHT22;3625;51.762;14.320;2023-12-29T12:45:48;12.00;1.00
7167;DHT22;3625;51.762;14.320;2023-12-29T12:48:32;12.20;1.00
7167;DHT22;3625;51.762;14.320;2023-12-29T12:51:07;12.20;1.00
7167;DHT22;3625;51.762;14.320;2023-12-29T12:53:40;12.30;99.90
7167;DHT22;3625;51.762;14.320;2023-12-29T12:56:16;12.30;1.00
7167;DHT22;3625;51.762;14.320;2023-12-29T12:58:47;12.40;1.00
7167;DHT22;3625;51.762;14.320;2023-12-29T13:01:18;12.30;99.90
7167;DHT22;3625;51.762;14.320;2023-12-29T13:03:57;12.30;1.00
7167;DHT22;3625;51.762;14.320;2023-12-29T13:06:40;12.20;99.90
7167;DHT22;3625;51.762;14.320;2023-12-29T13:09:14;12.10;99.90
7167;DHT22;3625;51.762;14.320;2023-12-29T13:11:49;12.00;99.90
7167;DHT22;3625;51.762;14.320;2023-12-29T13:14:21;12.00;99.90
7167;DHT22;3625;51.762;14.320;2023-12-29T13:16:53;12.00;99.90
7167;DHT22;3625;51.762;14.320;2023-12-29T13:19:24;12.00;99.90
7167;DHT22;3625;51.762;14.320;2023-12-29T13:21:55;12.00;99.90
7167;DHT22;3625;51.762;14.320;2023-12-29T13:24:25;12.00;99.90
7167;DHT22;3625;51.762;14.320;2023-12-29T13:27:01;12.00;99.90
7167;DHT22;3625;51.762;14.320;2023-12-29T13:29:32;12.00;99.90
7167;DHT22;3625;51.762;14.320;2023-12-29T13:32:09;12.00;99.90
7167;DHT22;3625;51.762;14.320;2023-12-29T13:34:50;12.00;99.90
7167;DHT22;3625;51.762;14.320;2023-12-29T13:37:31;12.00;99.90
7167;DHT22;3625;51.762;14.320;2023-12-29T13:40:15;11.90;99.90
7167;DHT22;3625;51.762;14.320;2023-12-29T13:42:57;11.80;99.90
7167;DHT22;3625;51.762;14.320;2023-12-29T13:45:29;11.80;99.90
7167;DHT22;3625;51.762;14.320;2023-12-29T13:48:00;11.80;99.90
7167;DHT22;3625;51.762;14.320;2023-12-29T13:50:31;11.80;1.00
7167;DHT22;3625;51.762;14.320;2023-12-29T13:53:01;11.80;1.00
7167;DHT22;3625;51.762;14.320;2023-12-29T13:55:30;11.70;99.90
7167;DHT22;3625;51.762;14.320;2023-12-29T13:58:09;11.70;1.00
7167;DHT22;3625;51.762;14.320;2023-12-29T14:00:40;11.70;1.00
7167;DHT22;3625;51.762;14.320;2023-12-29T14:03:14;11.70;1.00
7167;DHT22;3625;51.762;14.320;2023-12-29T14:06:00;11.60;99.90
7167;DHT22;3625;51.762;14.320;2023-12-29T14:08:33;11.60;1.00
7167;DHT22;3625;51.762;14.320;2023-12-29T14:11:08;10.30;1.00
7167;DHT22;3625;51.762;14.320;2023-12-29T14:13:41;11.60;1.00
7167;DHT22;3625;51.762;14.320;2023-12-29T14:16:11;11.60;1.00
7167;DHT22;3625;51.762;14.320;2023-12-29T14:18:52;11.60;1.00
7167;DHT22;3625;51.762;14.320;2023-12-29T14:21:26;11.50;1.00
7167;DHT22;3625;51.762;14.320;2023-12-29T14:24:06;11.40;95.90
7167;DHT22;3625;51.762;14.320;2023-12-29T14:26:36;11.40;90.60
7167;DHT22;3625;51.762;14.320;2023-12-29T14:29:08;11.40;99.90
7167;DHT22;3625;51.762;14.320;2023-12-29T14:31:39;11.20;99.90
7167;DHT22;3625;51.762;14.320;2023-12-29T14:34:10;11.20;1.00
7167;DHT22;3625;51.762;14.320;2023-12-29T14:48:03;11.30;1.00
7167;DHT22;3625;51.762;14.320;2023-12-29T14:50:33;11.20;1.00
7167;DHT22;3625;51.762;14.320;2023-12-29T14:53:02;11.10;20.50
7167;DHT22;3625;51.762;14.320;2023-12-29T14:55:31;11.10;99.90
7167;DHT22;3625;51.762;14.320;2023-12-29T14:58:00;11.00;99.90
7167;DHT22;3625;51.762;14.320;2023-12-29T15:00:29;10.90;34.30
7167;DHT22;3625;51.762;14.320;2023-12-29T15:02:58;10.80;1.00
7167;DHT22;3625;51.762;14.320;2023-12-29T15:05:28;10.70;1.00
7167;DHT22;3625;51.762;14.320;2023-12-29T15:07:57;10.70;1.00
7167;DHT22;3625;51.762;14.320;2023-12-29T15:10:26;10.70;1.00
7167;DHT22;3625;51.762;14.320;2023-12-29T15:12:57;10.70;1.00
7167;DHT22;3625;51.762;14.320;2023-12-29T15:15:26;10.80;1.00
7167;DHT22;3625;51.762;14.320;2023-12-29T15:17:55;10.80;1.00
7167;DHT22;3625;51.762;14.320;2023-12-29T15:20:24;10.80;1.00
7167;DHT22;3625;51.762;14.320;2023-12-29T15:22:54;10.80;99.90
7167;DHT22;3625;51.762;14.320;2023-12-29T15:25:23;10.80;93.60
7167;DHT22;3625;51.762;14.320;2023-12-29T15:27:53;10.80;1.00
7167;DHT22;3625;51.762;14.320;2023-12-29T15:30:22;10.80;1.00
7167;DHT22;3625;51.762;14.320;2023-12-29T15:32:51;10.80;1.00
7167;DHT22;3625;51.762;14.320;2023-12-29T15:35:20;10.80;1.00
7167;DHT22;3625;51.762;14.320;2023-12-29T15:37:49;10.80;1.00
7167;DHT22;3625;51.762;14.320;2023-12-29T15:40:20;10.80;1.00
7167;DHT22;3625;51.762;14.320;2023-12-29T15:42:49;10.80;1.00
7167;DHT22;3625;51.762;14.320;2023-12-29T15:45:18;10.80;99.90
7167;DHT22;3625;51.762;14.320;2023-12-29T15:47:50;10.90;1.00
7167;DHT22;3625;51.762;14.320;2023-12-29T15:52:48;10.80;1.00
7167;DHT22;3625;51.762;14.320;2023-12-29T15:55:17;10.80;1.00
7167;DHT22;3625;51.762;14.320;2023-12-29T15:57:47;10.80;99.90
7167;DHT22;3625;51.762;14.320;2023-12-29T16:00:17;10.80;99.90
7167;DHT22;3625;51.762;14.320;2023-12-29T16:02:47;10.80;1.00
7167;DHT22;3625;51.762;14.320;2023-12-29T16:05:16;10.80;1.00
7167;DHT22;3625;51.762;14.320;2023-12-29T16:07:45;10.80;1.00
7167;DHT22;3625;51.762;14.320;2023-12-29T16:10:14;10.80;1.00
7167;DHT22;3625;51.762;14.320;2023-12-29T16:12:43;10.70;1.00
7167;DHT22;3625;51.762;14.320;2023-12-29T16:15:13;10.70;99.90
7167;DHT22;3625;51.762;14.320;2023-12-29T16:17:42;10.40;1.00
7167;DHT22;3625;51.762;14.320;2023-12-29T16:20:11;10.50;99.90
7167;DHT22;3625;51.762;14.320;2023-12-29T16:22:40;10.40;1.00
7167;DHT22;3625;51.762;14.320;2023-12-29T16:25:09;10.50;99.90
7167;DHT22;3625;51.762;14.320;2023-12-29T16:27:40;10.50;1.00
7167;DHT22;3625;51.762;14.320;2023-12-29T16:30:10;10.50;99.90
7167;DHT22;3625;51.762;14.320;2023-12-29T16:32:41;11.70;70.00
7167;DHT22;3625;51.762;14.320;2023-12-29T16:35:10;10.50;40.00
7167;DHT22;3625;51.762;14.320;2023-12-29T16:37:38;10.60;76.50
7167;DHT22;3625;51.762;14.320;2023-12-29T16:40:08;10.60;1.00
7167;DHT22;3625;51.762;14.320;2023-12-29T16:42:41;10.60;8.40